VNKT METAR

Available data for VNKT from the past hour
KATHMANDU INTL A
Metar
VNKT 262150Z VRB02KT 7000 FEW015 SCT030 20/19 Q1015 NOSIG

21:50 UTC

Wind: ° 2kt

Visibility: 7000 m

Sky: FEW 1500 ft

Temp: 20 deg C / 68 deg F

Dewpoint: 19 deg C / 66.2 deg F

Pressure: 1015 hPa


WARNING: the data listed  above is for informational purposes only and should be confirmed from official sources. Data presented here on this page are fetched from Aviation weather data from NOAA’s Aviation Digital Data Service.

How to see the Details of METAR Reading.

Click on the Triangle beside of the Word METAR.(Refer to Fig.1)

VNKTmetar